| time (UTC) | temp C | wind direction | speed KPH | gust KPH | rain 1hr cm | rain 24hr cm | rain mn cm | humidity % | barometer mb |
| 20260502195504 | 23 | 79 | 0.0 | 3.2 | 0.00 | 1.40 | 0.03 | 51 | 1019.9 |
| 20260502195004 | 23 | 248 | 0.0 | 3.2 | 0.00 | 1.42 | 0.03 | 51 | 1019.9 |
| 20260502194510 | 23 | 146 | 0.0 | 3.2 | 0.00 | 1.45 | 0.03 | 52 | 1019.9 |
| 20260502194007 | 23 | 39 | 1.6 | 11.3 | 0.00 | 1.47 | 0.03 | 51 | 1020.0 |
| 20260502193508 | 23 | 59 | 0.0 | 11.3 | 0.00 | 1.52 | 0.03 | 51 | 1020.1 |
| 20260502193009 | 23 | 326 | 1.6 | 9.7 | 0.00 | 1.55 | 0.03 | 50 | 1020.2 |
| 20260502192509 | 23 | 328 | 1.6 | 8.0 | 0.00 | 1.57 | 0.03 | 51 | 1020.2 |
| 20260502192007 | 24 | 316 | 3.2 | 8.0 | 0.00 | 1.60 | 0.03 | 47 | 1020.3 |
| 20260502191531 | 23 | 116 | 1.6 | 8.0 | 0.00 | 1.60 | 0.03 | 50 | 1020.4 |
| 20260502191012 | 23 | 141 | 1.6 | 8.0 | 0.00 | 1.60 | 0.03 | 55 | 1020.4 |
| 20260502190504 | 23 | 93 | 1.6 | 8.0 | 0.00 | 1.60 | 0.03 | 51 | 1020.5 |
| 20260502190028 | 23 | 287 | 1.6 | 8.0 | 0.00 | 1.60 | 0.03 | 54 | 1020.5 |
| 20260502185505 | 23 | 72 | 0.0 | 9.7 | 0.00 | 1.63 | 0.03 | 50 | 1020.5 |
| 20260502185002 | 23 | 161 | 1.6 | 9.7 | 0.00 | 1.63 | 0.03 | 51 | 1020.6 |
| 20260502184523 | 23 | 305 | 1.6 | 6.4 | 0.00 | 1.63 | 0.03 | 54 | 1020.8 |
| 20260502184004 | 23 | 302 | 0.0 | 6.4 | 0.00 | 1.63 | 0.03 | 55 | 1020.8 |
| 20260502183508 | 23 | 66 | 1.6 | 6.4 | 0.00 | 1.63 | 0.03 | 52 | 1020.8 |
| 20260502183021 | 23 | 116 | 1.6 | 6.4 | 0.00 | 1.63 | 0.03 | 57 | 1020.9 |
| 20260502182506 | 23 | 72 | 1.6 | 6.4 | 0.00 | 1.63 | 0.03 | 53 | 1020.9 |
| 20260502182010 | 23 | 103 | 1.6 | 12.9 | 0.00 | 1.63 | 0.03 | 52 | 1021.1 |
| 20260502181518 | 22 | 223 | 4.8 | 12.9 | 0.00 | 1.63 | 0.03 | 53 | 1021.2 |
| 20260502181004 | 22 | 77 | 1.6 | 11.3 | 0.00 | 1.63 | 0.03 | 53 | 1021.2 |
| 20260502180508 | 22 | 41 | 3.2 | 11.3 | 0.00 | 1.63 | 0.03 | 55 | 1021.2 |
| 20260502170507 | 20 | 60 | 0.0 | 6.4 | 0.00 | 1.75 | 0.03 | 64 | 1021.6 |
| 20260502164004 | 18 | 218 | 0.0 | 6.4 | 0.00 | 1.78 | 0.03 | 67 | 1021.6 |
| 20260502163508 | 18 | 120 | 1.6 | 6.4 | 0.00 | 1.80 | 0.03 | 69 | 1021.6 |
| 20260502163034 | 18 | 263 | 0.0 | 6.4 | 0.00 | 1.80 | 0.03 | 70 | 1021.5 |
| 20260502162505 | 18 | 172 | 0.0 | 3.2 | 0.00 | 1.83 | 0.03 | 71 | 1021.5 |
| 20260502162010 | 18 | 288 | 0.0 | 6.4 | 0.00 | 1.85 | 0.03 | 71 | 1021.6 |
| 20260502161520 | 18 | 300 | 0.0 | 8.0 | 0.00 | 1.88 | 0.03 | 73 | 1021.6 |
| 20260502161012 | 17 | 335 | 1.6 | 8.0 | 0.00 | 1.93 | 0.03 | 73 | 1021.5 |
| 20260502160509 | 17 | 28 | 0.0 | 8.0 | 0.00 | 1.98 | 0.03 | 78 | 1021.5 |
| 20260502152007 | 16 | 321 | 0.0 | 3.2 | 0.00 | 2.95 | 0.03 | 84 | 1021.2 |
| 20260502151527 | 16 | 13 | 0.0 | 6.4 | 0.00 | 2.95 | 0.03 | 85 | 1021.3 |
| 20260502151006 | 15 | 122 | 0.0 | 6.4 | 0.00 | 2.95 | 0.03 | 84 | 1021.2 |
| 20260502150510 | 15 | 1 | 0.0 | 4.8 | 0.03 | 2.95 | 0.03 | 85 | 1021.3 |
| 20260502130512 | 11 | 319 | 1.6 | 8.0 | 0.00 | 4.37 | 0.00 | 96 | 1020.1 |
| 20260502123514 | 10 | 319 | 0.0 | 4.8 | 0.00 | 5.23 | 0.00 | 97 | 1019.8 |
| 20260502123044 | 10 | 329 | 0.0 | 3.2 | 0.00 | 5.31 | 0.00 | 97 | 1019.6 |
| 20260502122512 | 10 | 323 | 0.0 | 3.2 | 0.00 | 5.46 | 0.00 | 97 | 1019.5 |
| 20260502122018 | 10 | 333 | 0.0 | 1.6 | 0.00 | 5.74 | 0.00 | 97 | 1019.5 |
| 20260502121522 | 10 | 333 | 0.0 | 1.6 | 0.00 | 5.84 | 0.00 | 97 | 1019.5 |
| 20260502121004 | 10 | 333 | 0.0 | 1.6 | 0.00 | 5.89 | 0.00 | 97 | 1019.4 |
| 20260502120504 | 10 | 333 | 0.0 | 1.6 | 0.00 | 6.05 | 0.00 | 97 | 1019.4 |
| 20260502115508 | 10 | 328 | 0.0 | 1.6 | 0.00 | 6.20 | 0.00 | 96 | 1019.3 |
| 20260502115011 | 10 | 328 | 0.0 | 1.6 | 0.00 | 6.30 | 0.00 | 96 | 1019.2 |
| 20260502114515 | 10 | 328 | 0.0 | 1.6 | 0.00 | 6.45 | 0.00 | 96 | 1019.2 |
| 20260502114003 | 10 | 328 | 0.0 | 1.6 | 0.00 | 6.86 | 0.00 | 96 | 1019.2 |
| 20260502113507 | 10 | 328 | 0.0 | 1.6 | 0.00 | 6.91 | 0.00 | 96 | 1019.1 |
| 20260502113014 | 10 | 349 | 0.0 | 1.6 | 0.00 | 6.93 | 0.00 | 96 | 1019.1 |
| 20260502112507 | 10 | 347 | 0.0 | 1.6 | 0.00 | 6.96 | 0.00 | 96 | 1019.1 |
| 20260502112007 | 10 | 347 | 0.0 | 1.6 | 0.00 | 6.99 | 0.00 | 96 | 1018.8 |
| 20260502111511 | 10 | 347 | 0.0 | 1.6 | 0.00 | 7.04 | 0.00 | 96 | 1018.8 |
| 20260502111010 | 10 | 347 | 0.0 | 1.6 | 0.00 | 7.11 | 0.00 | 96 | 1018.7 |
| 20260502110504 | 10 | 349 | 0.0 | 1.6 | 0.00 | 7.16 | 0.00 | 96 | 1018.6 |
| 20260502110009 | 10 | 318 | 0.0 | 0.0 | 0.00 | 7.19 | 0.00 | 96 | 1018.5 |
| 20260502105506 | 10 | 318 | 0.0 | 0.0 | 0.00 | 7.26 | 0.00 | 96 | 1018.5 |
| 20260502105005 | 10 | 318 | 0.0 | 1.6 | 0.00 | 7.39 | 0.00 | 96 | 1018.5 |
| 20260502104525 | 10 | 317 | 0.0 | 1.6 | 0.00 | 7.47 | 0.00 | 96 | 1018.5 |
| 20260502104005 | 10 | 327 | 0.0 | 1.6 | 0.00 | 7.57 | 0.00 | 96 | 1018.4 |
| 20260502103504 | 10 | 321 | 0.0 | 3.2 | 0.00 | 7.59 | 0.00 | 96 | 1018.4 |
| 20260502103023 | 10 | 321 | 0.0 | 4.8 | 0.00 | 7.65 | 0.00 | 96 | 1018.4 |
| 20260502102507 | 10 | 316 | 0.0 | 4.8 | 0.00 | 7.67 | 0.00 | 96 | 1018.3 |
| 20260502102005 | 10 | 300 | 0.0 | 3.2 | 0.00 | 7.67 | 0.00 | 96 | 1018.2 |
| 20260502101519 | 10 | 348 | 0.0 | 3.2 | 0.00 | 7.67 | 0.00 | 96 | 1018.1 |
| 20260502101006 | 10 | 316 | 0.0 | 3.2 | 0.00 | 7.67 | 0.00 | 96 | 1018.1 |
| 20260502100508 | 10 | 328 | 0.0 | 4.8 | 0.00 | 7.70 | 0.00 | 96 | 1018.1 |
| 20260502091512 | 10 | 300 | 0.0 | 4.8 | 0.00 | 8.31 | 0.00 | 97 | 1017.3 |
| 20260502091004 | 10 | 222 | 0.0 | 1.6 | 0.00 | 8.33 | 0.00 | 96 | 1017.2 |
| 20260502090506 | 10 | 219 | 0.0 | 1.6 | 0.00 | 8.36 | 0.00 | 96 | 1017.0 |
| 20260502071514 | 11 | 156 | 0.0 | 0.0 | 0.00 | 9.37 | 0.00 | 97 | 1016.6 |
| 20260502071006 | 11 | 156 | 0.0 | 0.0 | 0.00 | 9.37 | 0.00 | 97 | 1016.7 |
| 20260502070507 | 11 | 156 | 0.0 | 0.0 | 0.00 | 9.37 | 0.00 | 97 | 1016.9 |
| 20260502070012 | 11 | 156 | 0.0 | 0.0 | 0.00 | 9.37 | 0.00 | 97 | 1016.8 |
| 20260502065508 | 11 | 155 | 0.0 | 0.0 | 0.00 | 9.37 | 0.00 | 97 | 1016.9 |
| 20260502065011 | 11 | 156 | 0.0 | 0.0 | 0.00 | 9.37 | 0.00 | 97 | 1016.9 |
| 20260502064508 | 11 | 194 | 0.0 | 0.0 | 0.00 | 9.37 | 0.00 | 97 | 1016.8 |
| 20260502064007 | 11 | 195 | 0.0 | 1.6 | 0.00 | 9.37 | 0.00 | 97 | 1016.7 |
| 20260502063504 | 11 | 184 | 0.0 | 1.6 | 0.00 | 9.37 | 0.00 | 96 | 1016.6 |
| 20260502063023 | 11 | 73 | 0.0 | 1.6 | 0.00 | 9.37 | 0.00 | 96 | 1016.6 |
| 20260502062506 | 11 | 115 | 0.0 | 1.6 | 0.00 | 9.40 | 0.00 | 96 | 1016.5 |
| 20260502062001 | 11 | 223 | 0.0 | 1.6 | 0.00 | 9.40 | 0.00 | 97 | 1016.5 |
| 20260502061523 | 11 | 224 | 0.0 | 1.6 | 0.00 | 9.40 | 0.00 | 96 | 1016.5 |
| 20260502061006 | 11 | 100 | 0.0 | 1.6 | 0.00 | 9.40 | 0.00 | 96 | 1016.6 |
| 20260502060506 | 11 | 44 | 0.0 | 1.6 | 0.00 | 9.40 | 0.00 | 96 | 1016.5 |
| 20260502060022 | 11 | 101 | 0.0 | 3.2 | 0.00 | 9.42 | 0.00 | 96 | 1016.5 |
| 20260502055503 | 11 | 101 | 0.0 | 3.2 | 0.00 | 9.45 | 0.00 | 96 | 1016.5 |
| 20260502055008 | 11 | 342 | 0.0 | 6.4 | 0.00 | 9.45 | 0.00 | 96 | 1016.7 |
| 20260502054522 | 11 | 258 | 0.0 | 6.4 | 0.00 | 9.45 | 0.00 | 96 | 1016.7 |
| 20260502054005 | 11 | 59 | 0.0 | 3.2 | 0.00 | 9.45 | 0.00 | 96 | 1016.6 |
| 20260502053507 | 11 | 51 | 0.0 | 3.2 | 0.00 | 9.45 | 0.00 | 96 | 1016.5 |
| 20260502053018 | 12 | 73 | 0.0 | 3.2 | 0.00 | 9.45 | 0.00 | 96 | 1016.6 |
| 20260502052510 | 12 | 91 | 0.0 | 1.6 | 0.00 | 9.45 | 0.00 | 96 | 1016.7 |
| 20260502052007 | 12 | 6 | 0.0 | 1.6 | 0.00 | 9.45 | 0.00 | 96 | 1016.6 |
| 20260502051520 | 12 | 82 | 0.0 | 3.2 | 0.00 | 9.45 | 0.00 | 96 | 1016.6 |
| 20260502051011 | 12 | 72 | 0.0 | 6.4 | 0.00 | 9.45 | 0.00 | 97 | 1016.5 |
| 20260502050507 | 12 | 210 | 0.0 | 6.4 | 0.00 | 9.45 | 0.00 | 96 | 1016.5 |
| 20260502050027 | 12 | 210 | 0.0 | 9.7 | 0.00 | 9.45 | 0.00 | 97 | 1016.6 |
| 20260502045507 | 12 | 255 | 0.0 | 9.7 | 0.00 | 9.45 | 9.45 | 96 | 1016.5 |
| 20260502045007 | 12 | 274 | 0.0 | 3.2 | 0.00 | 9.45 | 9.45 | 96 | 1016.4 |
| 20260502044528 | 12 | 313 | 0.0 | 3.2 | 0.00 | 9.45 | 9.45 | 96 | 1016.4 |
| 20260502044007 | 12 | 108 | 0.0 | 3.2 | 0.00 | 9.45 | 9.45 | 96 | 1016.3 |
| 20260502043505 | 12 | 236 | 0.0 | 4.8 | 0.00 | 9.45 | 9.45 | 96 | 1016.3 |
| 20260502043026 | 12 | 249 | 0.0 | 4.8 | 0.00 | 9.45 | 9.45 | 96 | 1016.3 |
| 20260502042509 | 12 | 77 | 0.0 | 4.8 | 0.00 | 9.45 | 9.45 | 96 | 1016.3 |
| 20260502042015 | 12 | 35 | 0.0 | 4.8 | 0.00 | 9.45 | 9.45 | 96 | 1016.3 |
| 20260502041528 | 12 | 44 | 0.0 | 4.8 | 0.00 | 9.45 | 9.45 | 96 | 1016.3 |
| 20260502041003 | 12 | 250 | 0.0 | 4.8 | 0.00 | 9.45 | 9.45 | 97 | 1016.3 |
| 20260502040506 | 12 | 42 | 0.0 | 3.2 | 0.00 | 9.45 | 9.45 | 97 | 1016.3 |
| 20260502040022 | 12 | 256 | 0.0 | 6.4 | 0.00 | 9.45 | 9.45 | 97 | 1016.4 |
| 20260502035503 | 12 | 234 | 0.0 | 6.4 | 0.00 | 9.45 | 9.45 | 97 | 1016.3 |
| 20260502035010 | 12 | 166 | 0.0 | 3.2 | 0.00 | 9.45 | 9.45 | 97 | 1016.4 |
| 20260502034522 | 12 | 222 | 0.0 | 6.4 | 0.00 | 9.45 | 9.45 | 97 | 1016.4 |
| 20260502034008 | 12 | 319 | 0.0 | 6.4 | 0.00 | 9.45 | 9.45 | 97 | 1016.4 |
| 20260502033508 | 12 | 44 | 0.0 | 4.8 | 0.00 | 9.45 | 9.45 | 97 | 1016.4 |
| 20260502033019 | 12 | 326 | 0.0 | 12.9 | 0.00 | 9.45 | 9.45 | 97 | 1016.4 |
| 20260502032508 | 12 | 307 | 0.0 | 12.9 | 0.00 | 9.45 | 9.45 | 97 | 1016.3 |
| 20260502032009 | 12 | 330 | 1.6 | 6.4 | 0.00 | 9.45 | 9.45 | 97 | 1016.3 |
| 20260502031514 | 12 | 41 | 0.0 | 4.8 | 0.00 | 9.45 | 9.45 | 97 | 1016.1 |
| 20260502031010 | 12 | 318 | 0.0 | 6.4 | 0.00 | 9.45 | 9.45 | 97 | 1016.1 |
| 20260502030509 | 12 | 333 | 0.0 | 6.4 | 0.00 | 9.45 | 9.45 | 97 | 1015.9 |
| 20260502030032 | 12 | 211 | 0.0 | 3.2 | 0.00 | 9.45 | 9.45 | 97 | 1015.9 |
| 20260502025507 | 12 | 214 | 0.0 | 1.6 | 0.00 | 9.45 | 9.45 | 97 | 1015.8 |
| 20260502025006 | 12 | 213 | 0.0 | 3.2 | 0.00 | 9.45 | 9.45 | 97 | 1015.5 |
| 20260502024528 | 12 | 230 | 0.0 | 3.2 | 0.00 | 9.45 | 9.45 | 97 | 1015.4 |
| 20260502024007 | 12 | 236 | 0.0 | 3.2 | 0.00 | 9.45 | 9.45 | 97 | 1015.3 |
| 20260502023503 | 12 | 138 | 0.0 | 3.2 | 0.00 | 9.45 | 9.45 | 96 | 1014.9 |
| 20260502023025 | 12 | 37 | 0.0 | 3.2 | 0.00 | 9.45 | 9.45 | 96 | 1014.5 |
| 20260502022508 | 12 | 75 | 0.0 | 8.0 | 0.00 | 9.45 | 9.45 | 96 | 1014.5 |
| 20260502022007 | 12 | 98 | 1.6 | 8.0 | 0.00 | 9.45 | 9.45 | 97 | 1014.5 |
| 20260502021525 | 12 | 68 | 0.0 | 1.6 | 0.03 | 9.45 | 9.45 | 97 | 1014.5 |
| 20260502021006 | 12 | 248 | 0.0 | 1.6 | 0.03 | 9.45 | 9.45 | 97 | 1014.6 |
| 20260502020510 | 12 | 226 | 0.0 | 1.6 | 0.03 | 9.45 | 9.45 | 97 | 1014.7 |
| 20260502020022 | 12 | 209 | 0.0 | 3.2 | 0.03 | 9.45 | 9.45 | 97 | 1014.7 |
| 20260502015509 | 12 | 79 | 0.0 | 8.0 | 0.03 | 9.45 | 9.45 | 96 | 1014.7 |
| 20260502015008 | 12 | 352 | 0.0 | 8.0 | 0.03 | 9.45 | 9.45 | 96 | 1014.7 |
| 20260502014522 | 12 | 70 | 0.0 | 3.2 | 0.03 | 9.45 | 9.45 | 96 | 1014.5 |
| 20260502014007 | 12 | 41 | 0.0 | 8.0 | 0.05 | 9.45 | 9.45 | 96 | 1014.5 |
| 20260502013509 | 12 | 314 | 0.0 | 8.0 | 0.08 | 9.45 | 9.45 | 96 | 1014.4 |
| 20260502013018 | 12 | 231 | 0.0 | 8.0 | 0.10 | 9.45 | 9.45 | 96 | 1014.2 |
| 20260502012513 | 12 | 223 | 0.0 | 8.0 | 0.13 | 9.45 | 9.45 | 96 | 1014.2 |
| 20260502012007 | 12 | 360 | 0.0 | 4.8 | 0.15 | 9.45 | 9.45 | 96 | 1014.2 |
| 20260502011528 | 12 | 314 | 0.0 | 4.8 | 0.13 | 9.42 | 9.42 | 96 | 1014.5 |
| 20260502011009 | 13 | 25 | 1.6 | 8.0 | 0.15 | 9.42 | 9.42 | 96 | 1014.8 |
| 20260502010507 | 13 | 308 | 1.6 | 8.0 | 0.18 | 9.42 | 9.42 | 96 | 1014.6 |
| 20260502010030 | 13 | 333 | 0.0 | 3.2 | 0.18 | 9.42 | 9.42 | 96 | 1014.5 |
| 20260502005509 | 13 | 317 | 0.0 | 3.2 | 0.25 | 9.42 | 9.42 | 96 | 1014.1 |
| 20260502005008 | 13 | 21 | 0.0 | 11.3 | 0.30 | 9.42 | 9.42 | 96 | 1013.8 |
| 20260502004546 | 13 | 298 | 0.0 | 11.3 | 0.30 | 9.42 | 9.42 | 96 | 1013.4 |
| 20260502004008 | 13 | 270 | 1.6 | 6.4 | 0.33 | 9.40 | 9.40 | 96 | 1013.4 |
| 20260502003508 | 13 | 307 | 0.0 | 3.2 | 0.33 | 9.37 | 9.37 | 96 | 1013.3 |
| 20260502003027 | 13 | 42 | 0.0 | 6.4 | 0.30 | 9.35 | 9.35 | 96 | 1013.3 |
| 20260502002510 | 13 | 80 | 0.0 | 6.4 | 0.30 | 9.32 | 9.32 | 96 | 1013.6 |
| 20260502002015 | 13 | 321 | 1.6 | 4.8 | 0.28 | 9.30 | 9.30 | 96 | 1014.0 |
| 20260502001529 | 14 | 321 | 0.0 | 3.2 | 0.30 | 9.30 | 9.30 | 97 | 1014.0 |
| 20260502001004 | 14 | 344 | 0.0 | 4.8 | 0.30 | 9.27 | 9.27 | 97 | 1013.8 |
| 20260502000503 | 14 | 326 | 0.0 | 4.8 | 0.28 | 9.25 | 9.25 | 96 | 1013.4 |
| 20260502000010 | 14 | 335 | 0.0 | 3.2 | 0.30 | 9.25 | 9.25 | 96 | 1013.4 |
| 20260501235506 | 14 | 329 | 0.0 | 3.2 | 0.28 | 9.17 | 9.17 | 96 | 1013.3 |
| 20260501235004 | 14 | 331 | 0.0 | 3.2 | 0.33 | 9.12 | 9.12 | 97 | 1013.3 |
| 20260501234513 | 14 | 334 | 0.0 | 1.6 | 0.38 | 9.12 | 9.12 | 97 | 1013.4 |
| 20260501234009 | 14 | 334 | 0.0 | 4.8 | 0.36 | 9.07 | 9.07 | 97 | 1013.6 |
| 20260501233503 | 14 | 334 | 0.0 | 4.8 | 0.36 | 9.04 | 9.04 | 97 | 1013.4 |
| 20260501233011 | 14 | 321 | 0.0 | 4.8 | 0.36 | 9.04 | 9.04 | 97 | 1013.0 |
| 20260501232508 | 14 | 276 | 0.0 | 3.2 | 0.33 | 9.02 | 9.02 | 97 | 1013.3 |
| 20260501232005 | 14 | 185 | 0.0 | 1.6 | 0.33 | 9.02 | 9.02 | 97 | 1013.0 |
| 20260501231516 | 14 | 141 | 0.0 | 1.6 | 0.30 | 8.99 | 8.99 | 97 | 1012.0 |
| 20260501231004 | 14 | 55 | 0.0 | 1.6 | 0.28 | 8.97 | 8.97 | 96 | 1011.9 |
| 20260501230508 | 14 | 75 | 0.0 | 3.2 | 0.28 | 8.97 | 8.97 | 96 | 1011.8 |
| 20260501230013 | 14 | 93 | 0.0 | 3.2 | 0.25 | 8.94 | 8.94 | 96 | 1011.6 |
| 20260501225504 | 14 | 82 | 0.0 | 6.4 | 0.20 | 8.89 | 8.89 | 96 | 1012.1 |
| 20260501225005 | 14 | 133 | 0.0 | 8.0 | 0.10 | 8.79 | 8.79 | 96 | 1012.1 |
| 20260501224512 | 14 | 110 | 0.0 | 14.5 | 0.05 | 8.74 | 8.74 | 96 | 1011.6 |
| 20260501224005 | 14 | 2 | 1.6 | 14.5 | 0.08 | 8.71 | 8.71 | 96 | 1011.5 |
| 20260501223508 | 14 | 82 | 0.0 | 6.4 | 0.08 | 8.69 | 8.69 | 96 | 1011.0 |
| 20260501223011 | 15 | 91 | 0.0 | 4.8 | 0.13 | 8.69 | 8.69 | 96 | 1010.5 |
| 20260501222503 | 14 | 90 | 0.0 | 4.8 | 0.20 | 8.69 | 8.69 | 96 | 1010.1 |
| 20260501222006 | 15 | 96 | 1.6 | 4.8 | 0.25 | 8.69 | 8.69 | 96 | 1010.1 |
| 20260501221512 | 15 | 329 | 0.0 | 3.2 | 0.30 | 8.69 | 8.69 | 96 | 1010.6 |
| 20260501221006 | 15 | 77 | 0.0 | 3.2 | 0.36 | 8.69 | 8.69 | 97 | 1010.8 |
| 20260501220504 | 15 | 213 | 0.0 | 3.2 | 0.41 | 8.69 | 8.69 | 96 | 1011.0 |
| 20260501220013 | 15 | 124 | 1.6 | 6.4 | 0.41 | 8.69 | 8.69 | 97 | 1011.2 |
| 20260501215507 | 15 | 215 | 0.0 | 6.4 | 0.43 | 8.69 | 8.69 | 97 | 1011.7 |
| 20260501215002 | 15 | 139 | 1.6 | 6.4 | 0.43 | 8.69 | 8.69 | 96 | 1011.5 |
| 20260501214518 | 15 | 94 | 0.0 | 11.3 | 0.48 | 8.69 | 8.69 | 97 | 1012.2 |
| 20260501214009 | 15 | 354 | 0.0 | 11.3 | 0.43 | 8.64 | 8.64 | 97 | 1012.6 |
| 20260501213503 | 15 | 155 | 0.0 | 4.8 | 0.41 | 8.61 | 8.61 | 97 | 1012.1 |
| 20260501213029 | 15 | 312 | 0.0 | 4.8 | 0.36 | 8.56 | 8.56 | 97 | 1012.1 |
| 20260501212503 | 15 | 328 | 0.0 | 6.4 | 0.30 | 8.48 | 8.48 | 97 | 1011.8 |
| 20260501212004 | 15 | 2 | 0.0 | 6.4 | 0.25 | 8.43 | 8.43 | 96 | 1011.7 |
| 20260501211515 | 15 | 327 | 0.0 | 6.4 | 0.20 | 8.38 | 8.38 | 97 | 1012.0 |
| 20260501211003 | 15 | 326 | 0.0 | 4.8 | 0.18 | 8.33 | 8.33 | 97 | 1011.9 |
| 20260501210503 | 15 | 329 | 0.0 | 3.2 | 0.15 | 8.28 | 8.28 | 96 | 1012.0 |
| 20260501210033 | 15 | 251 | 0.0 | 3.2 | 0.18 | 8.28 | 8.28 | 96 | 1011.8 |
| 20260501205510 | 15 | 195 | 0.0 | 3.2 | 0.18 | 8.26 | 8.26 | 97 | 1011.0 |
| 20260501205007 | 15 | 236 | 0.0 | 4.8 | 0.20 | 8.26 | 8.26 | 96 | 1010.1 |
| 20260501204521 | 15 | 71 | 0.0 | 4.8 | 0.18 | 8.20 | 8.20 | 96 | 1010.2 |
| 20260501204007 | 15 | 245 | 0.0 | 4.8 | 0.20 | 8.20 | 8.20 | 96 | 1010.9 |
| 20260501203505 | 15 | 239 | 0.0 | 6.4 | 0.25 | 8.20 | 8.20 | 96 | 1011.1 |
| 20260501203017 | 15 | 219 | 0.0 | 6.4 | 0.28 | 8.20 | 8.20 | 96 | 1010.9 |
| 20260501202506 | 15 | 324 | 0.0 | 8.0 | 0.28 | 8.18 | 8.18 | 96 | 1011.0 |
| 20260501202006 | 15 | 261 | 1.6 | 8.0 | 0.30 | 8.18 | 8.18 | 96 | 1010.4 |
| 20260501201522 | 16 | 299 | 0.0 | 3.2 | 0.30 | 8.18 | 8.18 | 96 | 1010.1 |
| 20260501201008 | 16 | 15 | 0.0 | 1.6 | 0.28 | 8.15 | 8.15 | 97 | 1010.3 |
| 20260501200503 | 16 | 63 | 0.0 | 1.6 | 0.25 | 8.13 | 8.13 | 97 | 1010.8 |
| 20260501200020 | 16 | 274 | 0.0 | 1.6 | 0.23 | 8.10 | 8.10 | 97 | 1011.2 |